Thomasville, North Carolina
Current Conditions -  °F | °C
As of 12:15 AM on Tuesday 21 Oct 2014 (Local Time) from KEXX Reporting Station
Overcast Overcast  
Wind Chill: 56°   Ceiling: 10000
Heat Index: 56°   Visibility: 10mi
Dew Point: 51°   Wind: 0mph
Humidity: 83%   Direction: NA
Pressure: 29.98"   Gusts: NA
Location:  35.88°N, 80.08°W
Report Text: KEXX 210415Z AUTO 00000KT 10SM OVC100 14/11 A2998 RMK AO2 T01350107
Loading
Personal Weather Stations






























Interactive Weather Map New forecast layout! Learn more

10-Day Weather Forecast

Advertisements
Track Severe Weather on mobile